KFAF/FAF METAR and TAF weather

Enter ICAO airport designator
Station Type Date Time Source
KFAF METAR 2021/05/14 12:56 UTC NOAA

KFAF 141256Z AUTO 31006KT 10SM CLR 16/06 A3025 RMK AO2 SLP247 T01640062 $


Station Type Date Time Source
KFAF Decoded METAR 2021/05/14 12:56 UTC NOAA

Fort Eustis / Felker, VA, United States (KFAF) 37-08N 076-37W
May 14, 2021 - 08:56 AM EDT / 2021.05.14 1256 UTC
Wind: from the NW (310 degrees) at 7 MPH (6 KT):0
Visibility: 10 mile(s):0
Sky conditions: clear
Temperature: 61.5 F (16.4 C)
Dew Point: 43.2 F (6.2 C)
Relative Humidity: 50%
Pressure (altimeter): 30.25 in. Hg (1024 hPa)
ob: KFAF 141256Z AUTO 31006KT 10SM CLR 16/06 A3025 RMK AO2 SLP247 T01640062
cycle: 13

Station Type Date Time Source
KFAF TAF 2021/05/14 10:59 UTC NOAA

TAF
AMD KFAF 141044Z 1410/1516 VRB06KT 9999 SKC QNH3018INS
BECMG 1414/1415 09009KT 9999 SCT080 QNH3015INS TX21/1420Z TN07/1410Z

Example: see airport list